Time;durP1;ratioP1;P1;durP2;ratioP2;P2;SDS_P1;SDS_P2;PMS_P1;PMS_P2;Temp;Humidity;BMP_temperature;BMP_pressure;BME280_temperature;BME280_humidity;BME280_pressure;Samples;Min_cycle;Max_cycle;Signal;HPM_P1;HPM_P2
2023/09/16 00:00:34;;;;;;;0.70;0.70;;;;;;;18.44;100.00;97298.88;5004138;28;20444;-64
2023/09/16 00:03:06;;;;;;;0.80;0.80;;;;;;;18.43;100.00;97297.28;5004803;28;20054;-64
2023/09/16 00:05:34;;;;;;;0.70;0.70;;;;;;;18.22;100.00;97270.22;5004682;28;20054;-64
2023/09/16 00:08:00;;;;;;;0.70;0.70;;;;;;;18.53;100.00;97307.59;5004265;28;20045;-65
2023/09/16 00:10:27;;;;;;;0.77;0.77;;;;;;;18.58;100.00;97304.34;5004822;28;20046;-67
2023/09/16 00:12:54;;;;;;;0.80;0.80;;;;;;;17.68;100.00;97235.44;5004400;28;20599;-64
2023/09/16 00:15:21;;;;;;;0.82;0.82;;;;;;;18.20;100.00;97303.47;5004919;28;20046;-65
2023/09/16 00:17:48;;;;;;;0.80;0.80;;;;;;;17.45;100.00;97237.22;5004244;28;20552;-64
2023/09/16 00:20:15;;;;;;;0.70;0.70;;;;;;;18.08;100.00;97304.00;5004577;28;20046;-65
2023/09/16 00:22:43;;;;;;;0.70;0.70;;;;;;;17.50;100.00;97315.19;5004185;28;20136;-64
2023/09/16 00:25:10;;;;;;;0.70;0.70;;;;;;;16.94;100.00;97321.81;5019400;28;20050;-66
2023/09/16 00:27:40;;;;;;;0.70;0.70;;;;;;;16.67;100.00;97297.50;5002951;28;20064;-64
2023/09/16 00:30:08;;;;;;;0.80;0.80;;;;;;;17.10;100.00;97315.75;5004670;28;20054;-65
2023/09/16 00:32:35;;;;;;;0.70;0.70;;;;;;;16.85;100.00;97242.31;5004540;28;20152;-65
2023/09/16 00:35:03;;;;;;;0.70;0.70;;;;;;;17.46;100.00;97312.41;5002932;28;20054;-64
2023/09/16 00:37:30;;;;;;;0.70;0.70;;;;;;;17.24;100.00;97273.69;5002889;28;20050;-64
2023/09/16 00:39:57;;;;;;;0.80;0.80;;;;;;;17.67;100.00;97319.91;5004307;28;20058;-65
2023/09/16 00:42:23;;;;;;;0.73;0.73;;;;;;;17.75;100.00;97315.84;5002960;28;20061;-65
2023/09/16 00:44:50;;;;;;;0.70;0.70;;;;;;;17.66;100.00;97315.47;5003947;28;20061;-65
2023/09/16 00:47:17;;;;;;;0.70;0.70;;;;;;;17.80;100.00;97323.78;5003924;28;20054;-64
2023/09/16 00:49:44;;;;;;;0.70;0.70;;;;;;;17.87;100.00;97321.75;5004152;28;20095;-65
2023/09/16 00:52:10;;;;;;;0.70;0.70;;;;;;;17.92;100.00;97317.72;5003763;28;20065;-65
2023/09/16 00:54:38;;;;;;;0.70;0.70;;;;;;;16.00;100.00;97010.56;5002831;28;20046;-65
2023/09/16 00:57:12;;;;;;;0.80;0.80;;;;;;;17.93;100.00;97319.31;5003676;28;20076;-65
2023/09/16 00:59:39;;;;;;;0.70;0.70;;;;;;;17.96;100.00;97313.69;5002644;28;20521;-65
2023/09/16 01:02:08;;;;;;;0.70;0.70;;;;;;;18.14;100.00;97319.16;5003729;28;20050;-64
2023/09/16 01:04:38;;;;;;;0.80;0.80;;;;;;;18.04;100.00;97320.03;5002700;28;20073;-65
2023/09/16 01:07:06;;;;;;;0.70;0.70;;;;;;;17.91;100.00;97302.09;5003414;28;20085;-65
2023/09/16 01:09:32;;;;;;;0.70;0.70;;;;;;;17.93;100.00;97322.09;5002382;28;20054;-65
2023/09/16 01:11:59;;;;;;;0.80;0.80;;;;;;;17.85;100.00;97321.38;5004013;28;20054;-65
2023/09/16 01:14:26;;;;;;;0.70;0.70;;;;;;;17.59;100.00;97279.13;5003653;28;20065;-64
2023/09/16 01:17:02;;;;;;;0.70;0.70;;;;;;;17.77;100.00;97335.81;5003556;28;20524;-65
2023/09/16 01:19:52;;;;;;;0.70;0.70;;;;;;;17.58;100.00;97308.31;5003733;28;20057;-64
2023/09/16 01:22:20;;;;;;;0.70;0.70;;;;;;;17.52;100.00;97309.97;5003568;28;20136;-65
2023/09/16 01:24:53;;;;;;;0.70;0.70;;;;;;;17.60;100.00;97329.16;5002309;28;20093;-65
2023/09/16 01:27:21;;;;;;;0.70;0.70;;;;;;;17.59;100.00;97337.97;5002365;28;20559;-65
2023/09/16 01:29:48;;;;;;;0.70;0.70;;;;;;;17.69;100.00;97325.88;5002475;28;20057;-65
2023/09/16 01:32:17;;;;;;;0.70;0.70;;;;;;;17.68;100.00;97335.50;5003870;28;20053;-65
2023/09/16 01:34:49;;;;;;;0.80;0.80;;;;;;;17.78;100.00;97340.25;5002488;28;20062;-67
2023/09/16 01:37:22;;;;;;;0.80;0.80;;;;;;;17.72;100.00;97325.84;5003941;28;20054;-65
2023/09/16 01:39:53;;;;;;;0.70;0.70;;;;;;;17.88;100.00;97350.56;5002878;28;20049;-65
2023/09/16 01:42:20;;;;;;;0.70;0.70;;;;;;;17.70;100.00;97355.50;5003908;28;20474;-64
2023/09/16 01:44:48;;;;;;;0.75;0.75;;;;;;;17.54;100.00;97319.59;5003155;28;20082;-65
2023/09/16 01:47:14;;;;;;;0.80;0.80;;;;;;;17.64;100.00;97346.72;5002921;28;20546;-65
2023/09/16 01:49:41;;;;;;;0.70;0.70;;;;;;;17.26;100.00;97314.06;5003417;28;20046;-65
2023/09/16 01:52:08;;;;;;;0.70;0.70;;;;;;;17.59;100.00;97355.53;5004589;28;20052;-65
2023/09/16 01:54:35;;;;;;;0.70;0.70;;;;;;;17.52;100.00;97337.97;5007201;28;20057;-65
2023/09/16 01:57:01;;;;;;;0.80;0.80;;;;;;;17.22;100.00;97304.09;5006913;28;20056;-65
2023/09/16 01:59:28;;;;;;;0.70;0.70;;;;;;;17.43;100.00;97340.41;5006709;28;20516;-65
2023/09/16 02:01:55;;;;;;;0.70;0.70;;;;;;;17.37;100.00;97347.66;5006865;28;20062;-66
2023/09/16 02:04:21;;;;;;;0.73;0.73;;;;;;;17.38;100.00;97338.84;5006431;28;20060;-65
2023/09/16 02:06:48;;;;;;;0.73;0.73;;;;;;;17.40;100.00;97347.59;5006787;28;20065;-65
2023/09/16 02:09:15;;;;;;;0.70;0.70;;;;;;;17.40;100.00;97347.59;5006580;28;20167;-65
2023/09/16 02:11:42;;;;;;;0.70;0.70;;;;;;;17.29;100.00;97318.09;5006789;28;20133;-66
2023/09/16 02:14:11;;;;;;;0.80;0.80;;;;;;;17.16;100.00;97294.53;5006749;28;20068;-66
2023/09/16 02:16:38;;;;;;;0.80;0.80;;;;;;;17.44;100.00;97345.63;5006826;28;20056;-65
2023/09/16 02:19:05;;;;;;;0.70;0.70;;;;;;;17.30;100.00;97345.66;5006895;28;20138;-65
2023/09/16 02:21:32;;;;;;;0.77;0.77;;;;;;;17.09;100.00;97314.16;5005161;28;20112;-65
2023/09/16 02:23:59;;;;;;;0.80;0.80;;;;;;;17.38;100.00;97349.22;5005479;28;20081;-65
2023/09/16 02:26:26;;;;;;;0.70;0.70;;;;;;;17.39;100.00;97351.63;5006639;28;20072;-65
2023/09/16 02:28:52;;;;;;;0.70;0.70;;;;;;;17.21;100.00;97334.13;5005095;28;20612;-66
2023/09/16 02:31:19;;;;;;;0.70;0.70;;;;;;;17.17;100.00;97332.50;5004907;28;20064;-65
2023/09/16 02:33:45;;;;;;;0.70;0.70;;;;;;;17.07;100.00;97310.97;5006468;28;20130;-65
2023/09/16 02:36:13;;;;;;;0.80;0.80;;;;;;;17.25;100.00;97334.09;5006131;28;20053;-65
2023/09/16 02:38:39;;;;;;;0.70;0.70;;;;;;;17.37;100.00;97353.25;5005742;28;20304;-65
2023/09/16 02:41:06;;;;;;;0.73;0.73;;;;;;;17.31;100.00;97350.06;5005935;28;20046;-65
2023/09/16 02:43:32;;;;;;;0.70;0.70;;;;;;;17.35;100.00;97350.84;5006164;28;20046;-66
2023/09/16 02:45:59;;;;;;;0.70;0.70;;;;;;;17.17;100.00;97332.50;5005833;28;20062;-66
2023/09/16 02:48:26;;;;;;;0.70;0.70;;;;;;;17.12;100.00;97321.75;5006204;28;20149;-66
2023/09/16 02:50:53;;;;;;;0.68;0.68;;;;;;;16.77;100.00;97240.75;5006588;28;20053;-65
2023/09/16 02:53:19;;;;;;;0.65;0.65;;;;;;;16.89;100.00;97243.06;5005694;28;20444;-66
2023/09/16 02:55:46;;;;;;;0.80;0.80;;;;;;;17.45;100.00;97352.03;5004105;28;20783;-65
2023/09/16 02:58:13;;;;;;;0.70;0.70;;;;;;;16.99;100.00;97298.22;5005891;28;20060;-66
2023/09/16 03:00:42;;;;;;;0.70;0.70;;;;;;;17.29;100.00;97335.66;5004342;28;20452;-65
2023/09/16 03:03:09;;;;;;;0.80;0.80;;;;;;;17.35;100.00;97344.44;5005762;28;20604;-65
2023/09/16 03:05:35;;;;;;;0.70;0.70;;;;;;;16.68;100.00;97248.78;5006327;28;20085;-65
2023/09/16 03:08:02;;;;;;;0.70;0.70;;;;;;;17.19;100.00;97330.91;5005560;28;20053;-65
2023/09/16 03:10:32;;;;;;;0.70;0.70;;;;;;;16.88;100.00;97280.66;5005728;28;20064;-66
2023/09/16 03:12:59;;;;;;;0.70;0.70;;;;;;;15.43;100.00;97039.13;5005319;28;20671;-65
2023/09/16 03:15:25;;;;;;;0.70;0.70;;;;;;;17.11;100.00;97311.75;5005733;28;20046;-66
2023/09/16 03:17:52;;;;;;;0.70;0.70;;;;;;;16.79;100.00;97249.53;5005616;28;20513;-65
2023/09/16 03:20:33;;;;;;;0.70;0.70;;;;;;;16.99;100.00;97303.81;5005882;28;20057;-65
2023/09/16 03:23:00;;;;;;;0.68;0.68;;;;;;;17.12;100.00;97341.34;5005357;28;20139;-64
2023/09/16 03:25:26;;;;;;;0.75;0.75;;;;;;;16.41;100.00;97246.41;5004261;28;20092;-65
2023/09/16 03:27:53;;;;;;;0.70;0.70;;;;;;;17.07;100.00;97344.56;5003623;28;20046;-65
2023/09/16 03:30:20;;;;;;;0.70;0.70;;;;;;;16.95;100.00;97342.19;5005443;28;20101;-64
2023/09/16 03:32:47;;;;;;;0.65;0.65;;;;;;;16.99;100.00;97343.00;5004216;28;20061;-65
2023/09/16 03:35:13;;;;;;;0.70;0.70;;;;;;;16.69;100.00;97314.69;5005225;28;20172;-65
2023/09/16 03:37:40;;;;;;;0.70;0.70;;;;;;;17.05;100.00;97344.16;5003791;28;20057;-65
2023/09/16 03:40:07;;;;;;;0.70;0.70;;;;;;;17.09;100.00;97347.75;5005242;28;20061;-65
2023/09/16 03:42:34;;;;;;;0.70;0.70;;;;;;;17.05;100.00;97341.38;5003678;28;20081;-65
2023/09/16 03:45:01;;;;;;;0.70;0.70;;;;;;;17.06;100.00;97342.97;5003349;28;20074;-65
2023/09/16 03:47:37;;;;;;;0.70;0.70;;;;;;;16.99;100.00;97343.00;5004946;28;20046;-66
2023/09/16 03:50:04;;;;;;;0.70;0.70;;;;;;;17.05;100.00;97346.97;5004530;28;20448;-65
2023/09/16 03:52:31;;;;;;;0.68;0.68;;;;;;;17.07;100.00;97350.16;5003611;28;20512;-65
2023/09/16 03:54:58;;;;;;;0.70;0.70;;;;;;;16.99;100.00;97365.38;5005207;28;20046;-65
2023/09/16 03:57:25;;;;;;;0.80;0.80;;;;;;;17.01;100.00;97374.97;5004844;28;20045;-65
2023/09/16 03:59:51;;;;;;;0.70;0.70;;;;;;;16.99;100.00;97371.00;5005007;28;20045;-65
2023/09/16 04:02:18;;;;;;;0.70;0.70;;;;;;;16.59;100.00;97300.34;5004349;28;20050;-65
2023/09/16 04:04:45;;;;;;;0.70;0.70;;;;;;;16.80;100.00;97323.88;5004729;28;20054;-65
2023/09/16 04:07:12;;;;;;;0.60;0.60;;;;;;;16.84;100.00;97356.22;5004452;28;20054;-65
2023/09/16 04:09:38;;;;;;;0.70;0.70;;;;;;;16.93;100.00;97378.19;5019133;28;20103;-65
2023/09/16 04:12:05;;;;;;;0.70;0.70;;;;;;;16.92;100.00;97371.00;5004839;28;20050;-66
2023/09/16 04:14:32;;;;;;;0.70;0.70;;;;;;;16.96;100.00;97380.19;5004226;28;20050;-65
2023/09/16 04:16:59;;;;;;;0.70;0.70;;;;;;;17.03;100.00;97382.97;5002992;28;20076;-65
2023/09/16 04:19:25;;;;;;;0.70;0.70;;;;;;;17.15;100.00;97374.91;5004512;28;20504;-65
2023/09/16 04:21:52;;;;;;;0.75;0.75;;;;;;;17.14;100.00;97389.31;5004262;28;20061;-65
2023/09/16 04:24:19;;;;;;;0.70;0.70;;;;;;;17.08;100.00;97368.56;5004363;28;20115;-65
2023/09/16 04:26:46;;;;;;;0.70;0.70;;;;;;;17.10;100.00;97380.16;5004528;28;20056;-65
2023/09/16 04:29:12;;;;;;;0.70;0.70;;;;;;;16.97;100.00;97340.59;5004192;28;20157;-65
2023/09/16 04:31:42;;;;;;;0.70;0.70;;;;;;;17.35;100.00;97383.66;5004457;28;20049;-65
2023/09/16 04:34:09;;;;;;;0.70;0.70;;;;;;;17.23;100.00;97367.31;5004594;28;20112;-66
2023/09/16 04:36:36;;;;;;;0.70;0.70;;;;;;;17.27;100.00;97382.09;5003022;28;20128;-65
2023/09/16 04:39:03;;;;;;;0.80;0.80;;;;;;;17.42;100.00;97386.44;5002627;28;20081;-66
2023/09/16 04:41:29;;;;;;;0.70;0.70;;;;;;;17.00;100.00;97291.41;5003841;28;20871;-65
2023/09/16 04:43:56;;;;;;;0.70;0.70;;;;;;;17.69;100.00;97381.91;5004026;28;20054;-65
2023/09/16 04:46:23;;;;;;;0.65;0.65;;;;;;;17.91;100.00;97377.78;5003693;28;20057;-67
2023/09/16 04:48:50;;;;;;;0.70;0.70;;;;;;;17.64;100.00;97315.91;5003682;28;20115;-65
2023/09/16 04:51:17;;;;;;;0.77;0.77;;;;;;;18.23;100.00;97383.16;5004213;28;20050;-64
2023/09/16 04:53:44;;;;;;;0.70;0.70;;;;;;;18.40;100.00;97385.84;5002556;28;20053;-66
2023/09/16 04:56:10;;;;;;;0.70;0.70;;;;;;;18.56;100.00;97394.53;5002515;28;20045;-67
2023/09/16 04:58:37;;;;;;;0.80;0.80;;;;;;;18.70;98.88;97380.38;5002684;28;20050;-64
2023/09/16 05:01:06;;;;;;;0.85;0.85;;;;;;;18.90;97.50;97389.84;5003961;28;20155;-64
2023/09/16 05:03:33;;;;;;;0.80;0.80;;;;;;;19.00;97.33;97405.75;5004065;28;20072;-65
2023/09/16 05:06:00;;;;;;;0.80;0.80;;;;;;;19.08;96.74;97401.66;5004144;28;20155;-66
2023/09/16 05:08:27;;;;;;;0.70;0.70;;;;;;;19.16;95.94;97391.94;5003626;28;20058;-65
2023/09/16 05:10:57;;;;;;;0.70;0.70;;;;;;;19.18;95.41;97395.16;5003308;28;20046;-65
2023/09/16 05:13:24;;;;;;;0.80;0.80;;;;;;;18.94;96.51;97387.78;5002249;28;20119;-65
2023/09/16 05:15:51;;;;;;;0.80;0.80;;;;;;;19.18;96.49;97397.16;5001931;28;20082;-66
2023/09/16 05:18:18;;;;;;;0.80;0.80;;;;;;;18.49;95.54;97296.44;5003548;28;20583;-67
2023/09/16 05:20:44;;;;;;;0.80;0.80;;;;;;;19.21;95.44;97394.31;5003825;28;20052;-65
2023/09/16 05:23:12;;;;;;;0.70;0.70;;;;;;;19.23;95.29;97403.13;5002653;28;20054;-65
2023/09/16 05:25:46;;;;;;;0.80;0.80;;;;;;;19.34;95.02;97409.44;5003819;28;20108;-65
2023/09/16 05:28:13;;;;;;;0.88;0.88;;;;;;;19.41;95.70;97402.94;5006571;28;20081;-65
2023/09/16 05:30:42;;;;;;;0.75;0.75;;;;;;;19.22;94.91;97356.56;5007366;28;20563;-66
2023/09/16 05:33:12;;;;;;;0.75;0.75;;;;;;;19.08;93.97;97334.25;5005806;28;20054;-65
2023/09/16 05:35:40;;;;;;;0.70;0.70;;;;;;;19.64;93.70;97421.91;5007569;28;20050;-64
2023/09/16 05:38:08;;;;;;;0.80;0.80;;;;;;;19.72;93.19;97424.22;5006166;28;20053;-64
2023/09/16 05:40:37;;;;;;;0.70;0.70;;;;;;;19.66;92.89;97425.91;5005753;28;20054;-65
2023/09/16 05:43:04;;;;;;;0.73;0.73;;;;;;;19.64;93.47;97422.72;5006068;28;20421;-65
2023/09/16 05:45:31;;;;;;;0.70;0.70;;;;;;;19.33;93.50;97346.03;5006969;28;20058;-66
2023/09/16 05:48:02;;;;;;;0.80;0.80;;;;;;;19.53;93.34;97375.09;5007188;28;20133;-66
2023/09/16 05:50:32;;;;;;;0.85;0.85;;;;;;;19.79;93.65;97415.69;5006982;28;20065;-65
2023/09/16 05:52:58;;;;;;;0.80;0.80;;;;;;;19.91;93.75;97420.78;5021956;28;20041;-65
2023/09/16 05:55:25;;;;;;;0.80;0.80;;;;;;;19.77;94.01;97386.41;5006762;28;20576;-66
2023/09/16 05:57:52;;;;;;;0.80;0.80;;;;;;;19.57;93.43;97341.28;5005576;28;20050;-66
2023/09/16 06:00:19;;;;;;;0.90;0.90;;;;;;;19.78;94.94;97430.16;5005326;28;20077;-65
2023/09/16 06:02:45;;;;;;;0.80;0.80;;;;;;;19.78;96.10;97430.16;5007158;28;20068;-68
2023/09/16 06:05:12;;;;;;;0.88;0.88;;;;;;;18.79;98.30;97335.00;5006863;28;20054;-64
2023/09/16 06:07:42;;;;;;;0.80;0.80;;;;;;;17.43;96.34;97094.75;5001832;28;20065;-65
2023/09/16 06:10:09;;;;;;;0.80;0.80;;;;;;;19.83;95.04;97424.88;5004341;28;20086;-69
2023/09/16 06:12:36;;;;;;;0.90;0.90;;;;;;;19.24;97.20;97382.22;4998474;28;20577;-65
2023/09/16 06:15:03;;;;;;;0.80;0.80;;;;;;;19.72;95.63;97434.66;4986768;28;20046;-69
2023/09/16 06:17:29;;;;;;;0.80;0.80;;;;;;;19.82;95.33;97433.75;5002799;28;20050;-62
2023/09/16 06:19:56;;;;;;;0.90;0.90;;;;;;;20.07;92.74;97442.66;5004578;28;20491;-66
2023/09/16 06:22:24;;;;;;;0.90;0.90;;;;;;;20.25;92.90;97451.69;5005764;28;20064;-61
2023/09/16 06:24:51;;;;;;;0.80;0.80;;;;;;;20.56;91.54;97450.38;5006292;28;20060;-64
2023/09/16 06:27:18;;;;;;;0.80;0.80;;;;;;;20.38;89.40;97373.88;5002998;28;20056;-63
2023/09/16 06:29:46;;;;;;;0.80;0.80;;;;;;;20.54;87.65;97379.63;4999349;28;20072;-64
2023/09/16 06:32:14;;;;;;;0.82;0.82;;;;;;;20.23;87.04;97317.03;5002575;28;20057;-60
2023/09/16 06:34:40;;;;;;;0.77;0.77;;;;;;;21.15;85.52;97423.22;5006302;28;20513;-61
2023/09/16 06:37:07;;;;;;;0.80;0.80;;;;;;;21.59;85.06;97453.78;5004511;28;20442;-67
2023/09/16 06:39:34;;;;;;;0.90;0.90;;;;;;;21.94;84.43;97450.28;5005365;28;20143;-62
2023/09/16 06:42:05;;;;;;;0.90;0.90;;;;;;;20.30;83.87;97212.00;5002315;28;20103;-65
2023/09/16 06:44:31;;;;;;;0.90;0.90;;;;;;;21.82;84.64;97464.25;5003722;28;20064;-66
2023/09/16 06:46:58;;;;;;;0.90;0.90;;;;;;;21.67;82.57;97390.38;5003488;28;20061;-66
2023/09/16 06:49:25;;;;;;;0.90;0.90;;;;;;;22.39;80.85;97464.63;5004871;28;20504;-67
2023/09/16 06:51:51;;;;;;;0.90;0.90;;;;;;;22.20;82.30;97463.44;5002214;28;20050;-63
2023/09/16 06:54:18;;;;;;;1.00;1.00;;;;;;;22.43;81.71;97459.66;5006687;28;20406;-65
2023/09/16 06:56:45;;;;;;;1.00;1.00;;;;;;;20.96;81.18;97232.44;5002009;28;20068;-68
2023/09/16 06:59:12;;;;;;;1.10;1.10;;;;;;;23.06;78.28;97474.34;5002846;28;20162;-68
2023/09/16 07:01:39;;;;;;;0.93;0.93;;;;;;;21.51;77.35;97201.44;5004943;28;20041;-64
2023/09/16 07:04:05;;;;;;;0.90;0.90;;;;;;;23.36;74.99;97482.47;5005234;28;20089;-68
2023/09/16 07:06:32;;;;;;;1.10;1.10;;;;;;;23.43;73.42;97476.63;5003385;28;20054;-66
2023/09/16 07:08:59;;;;;;;1.00;1.00;;;;;;;21.53;74.93;97258.16;5004579;28;20060;-70
2023/09/16 07:11:26;;;;;;;1.00;1.00;;;;;;;22.38;77.04;97384.75;5000822;28;20483;-67
2023/09/16 07:13:53;;;;;;;1.00;1.00;;;;;;;23.19;74.52;97480.88;5002274;28;20614;-69
2023/09/16 07:16:20;;;;;;;1.10;1.10;;;;;;;23.32;74.25;97493.06;4998834;28;20130;-67
2023/09/16 07:18:47;;;;;;;1.10;1.10;;;;;;;23.35;74.80;97463.91;5003845;28;20100;-69
2023/09/16 07:21:14;;;;;;;1.10;1.10;;;;;;;23.78;71.84;97493.44;5002094;28;20057;-65
2023/09/16 07:23:41;;;;;;;1.00;1.00;;;;;;;23.96;70.46;97492.94;5000721;28;20108;-67
2023/09/16 07:26:08;;;;;;;0.90;0.90;;;;;;;23.16;72.20;97416.72;5004964;28;20053;-68
2023/09/16 07:28:35;;;;;;;0.90;0.90;;;;;;;23.00;73.41;97447.84;5003053;28;20081;-69
2023/09/16 07:31:01;;;;;;;1.08;1.08;;;;;;;23.20;72.58;97490.94;5003537;28;20085;-62
2023/09/16 07:33:29;;;;;;;0.90;0.90;;;;;;;22.52;75.74;97451.44;4999893;28;20053;-70
2023/09/16 07:35:56;;;;;;;1.10;1.10;;;;;;;23.35;74.37;97486.53;5003688;28;20062;-67
2023/09/16 07:38:23;;;;;;;1.00;1.00;;;;;;;23.59;73.62;97502.03;5001508;28;20072;-74
2023/09/16 07:40:52;;;;;;;1.20;1.20;;;;;;;23.58;73.55;97455.22;4995348;28;20550;-70
2023/09/16 07:43:20;;;;;;;1.10;1.10;;;;;;;24.00;72.11;97468.16;5004177;28;20061;-69
2023/09/16 07:45:46;;;;;;;1.10;1.10;;;;;;;24.30;70.43;97484.66;5003021;28;20106;-62
2023/09/16 07:48:14;;;;;;;1.20;1.20;;;;;;;24.21;69.13;97473.22;5002808;28;20042;-67
2023/09/16 07:50:41;;;;;;;1.00;1.00;;;;;;;23.97;67.72;97432.28;5003501;28;20137;-65
2023/09/16 07:53:08;;;;;;;1.20;1.20;;;;;;;23.95;67.79;97403.59;5002507;28;20053;-67
2023/09/16 07:55:34;;;;;;;1.40;1.40;;;;;;;23.69;68.27;97365.16;5004695;28;20049;-63
2023/09/16 07:58:01;;;;;;;1.20;1.20;;;;;;;24.25;68.46;97442.75;5002850;28;20066;-67
2023/09/16 08:00:28;;;;;;;1.27;1.27;;;;;;;23.62;69.85;97397.28;5003972;28;20081;-67
2023/09/16 08:02:55;;;;;;;1.33;1.33;;;;;;;24.34;69.97;97512.88;5001448;28;20418;-69
2023/09/16 08:05:22;;;;;;;1.30;1.30;;;;;;;23.91;68.51;97422.72;4999648;28;20046;-66
2023/09/16 08:07:49;;;;;;;1.35;1.35;;;;;;;22.00;68.46;97138.19;5003220;28;20056;-71
2023/09/16 08:10:16;;;;;;;1.30;1.30;;;;;;;24.63;67.86;97502.25;5001019;28;20049;-67
2023/09/16 08:12:43;;;;;;;1.30;1.30;;;;;;;24.85;67.82;97509.69;5000537;28;20050;-66
2023/09/16 08:15:10;;;;;;;1.17;1.17;;;;;;;24.97;67.72;97511.75;5001681;28;20147;-67
2023/09/16 08:17:39;;;;;;;1.13;1.13;;;;;;;25.07;67.14;97510.56;4998947;28;20489;-65
2023/09/16 08:20:07;;;;;;;1.40;1.40;;;;;;;25.07;66.80;97516.25;4986237;28;20541;-62
2023/09/16 08:22:34;;;;;;;1.30;1.30;;;;;;;24.73;65.82;97439.63;4995842;28;20134;-65
2023/09/16 08:25:05;;;;;;;1.08;1.08;;;;;;;25.09;67.11;97510.13;5003640;28;20505;-66
2023/09/16 08:27:32;;;;;;;1.20;1.20;;;;;;;24.90;66.16;97438.25;5003875;28;20574;-65
2023/09/16 08:29:58;;;;;;;1.30;1.30;;;;;;;25.83;65.09;97511.22;5001603;28;20447;-67
2023/09/16 08:32:28;;;;;;;1.27;1.27;;;;;;;24.82;63.86;97317.06;5000472;28;20057;-67
2023/09/16 08:34:56;;;;;;;1.30;1.30;;;;;;;26.22;63.61;97509.84;5002141;28;20046;-68
2023/09/16 08:37:23;;;;;;;1.42;1.42;;;;;;;26.65;61.85;97509.84;4994051;28;20131;-68
2023/09/16 08:39:50;;;;;;;1.30;1.30;;;;;;;26.25;60.85;97423.69;5017077;28;20050;-65
2023/09/16 08:42:21;;;;;;;1.38;1.38;;;;;;;26.45;61.64;97512.19;5002348;28;20054;-66
2023/09/16 08:44:51;;;;;;;1.40;1.40;;;;;;;25.01;64.40;97433.00;5003494;28;20057;-67
2023/09/16 08:47:27;;;;;;;1.48;1.48;;;;;;;25.31;64.78;97412.53;5006859;28;20066;-68
2023/09/16 08:50:04;;;;;;;1.38;1.38;;;;;;;25.93;63.73;97470.31;4982702;28;20076;-70
2023/09/16 08:52:46;;;;;;;1.60;1.60;;;;;;;26.25;61.76;97480.50;4992884;28;20278;-73
2023/09/16 08:55:13;;;;;;;1.45;1.45;;;;;;;25.85;60.03;97388.69;5018765;28;20069;-66
2023/09/16 08:58:00;;;;;;;1.58;1.58;;;;;;;26.80;59.68;97516.53;5015387;28;20521;-62
2023/09/16 09:00:27;;;;;;;1.23;1.23;;;;;;;26.85;59.75;97517.97;5019797;28;20076;-70
2023/09/16 09:02:54;;;;;;;1.60;1.60;;;;;;;26.32;58.84;97443.31;5000228;28;20160;-65
2023/09/16 09:05:25;;;;;;;1.52;1.52;;;;;;;26.81;58.32;97492.53;5013828;28;20104;-62
2023/09/16 09:07:56;;;;;;;1.70;1.70;;;;;;;27.17;58.29;97518.28;5020575;28;20141;-60
2023/09/16 09:10:22;;;;;;;1.88;1.88;;;;;;;27.13;58.42;97514.78;5026297;28;20531;-64
2023/09/16 09:12:50;;;;;;;1.50;1.50;;;;;;;26.58;58.48;97481.66;5013024;28;20050;-63
2023/09/16 09:15:17;;;;;;;1.45;1.45;;;;;;;26.72;58.89;97509.53;5007459;28;20060;-63
2023/09/16 09:17:46;;;;;;;1.40;1.40;;;;;;;26.47;59.56;97515.38;5007484;28;20042;-66
2023/09/16 09:20:19;;;;;;;1.50;1.50;;;;;;;26.50;58.99;97520.13;4987656;28;20501;-63
2023/09/16 09:22:48;;;;;;;1.60;1.60;;;;;;;26.42;56.98;97533.03;4998733;28;20057;-73
2023/09/16 09:25:20;;;;;;;1.52;1.52;;;;;;;25.57;60.28;97521.09;4990874;28;20498;-64
2023/09/16 09:27:49;;;;;;;1.45;1.45;;;;;;;25.93;59.40;97520.63;5000286;28;20085;-68
2023/09/16 09:30:16;;;;;;;1.40;1.40;;;;;;;25.65;60.87;97504.59;5005133;28;20324;-70
2023/09/16 09:32:45;;;;;;;1.50;1.50;;;;;;;25.54;61.33;97464.44;5015056;28;20344;-66
2023/09/16 09:35:12;;;;;;;1.40;1.40;;;;;;;24.95;61.63;97392.31;5017310;28;20427;-65
2023/09/16 09:37:39;;;;;;;1.60;1.60;;;;;;;25.36;61.53;97435.91;5014384;28;20518;-71
2023/09/16 09:40:09;;;;;;;1.38;1.38;;;;;;;25.80;62.11;97508.53;5025503;28;20053;-70
2023/09/16 09:42:44;;;;;;;1.40;1.40;;;;;;;25.29;63.38;97477.41;5013104;28;20050;-69
2023/09/16 09:45:11;;;;;;;1.30;1.30;;;;;;;25.10;66.22;97523.84;5005258;28;20116;-69
2023/09/16 09:47:39;;;;;;;1.30;1.30;;;;;;;24.96;66.06;97481.78;5006020;28;20077;-69
2023/09/16 09:50:07;;;;;;;1.42;1.42;;;;;;;24.44;66.52;97365.25;5006969;28;20102;-70
2023/09/16 09:52:34;;;;;;;1.20;1.20;;;;;;;25.00;67.73;97490.97;5005171;28;20520;-70
2023/09/16 09:55:02;;;;;;;1.20;1.20;;;;;;;23.68;68.19;97290.81;5006773;28;20056;-72
2023/09/16 09:57:32;;;;;;;1.20;1.20;;;;;;;25.00;68.04;97487.34;5006307;28;20574;-72
2023/09/16 09:59:59;;;;;;;1.35;1.35;;;;;;;25.00;68.61;97510.81;5006562;28;20084;-71
2023/09/16 10:02:27;;;;;;;1.05;1.05;;;;;;;24.55;69.00;97439.38;5004674;28;20087;-70
2023/09/16 10:04:58;;;;;;;1.10;1.10;;;;;;;24.93;67.19;97459.22;5010335;28;20046;-72
2023/09/16 10:07:25;;;;;;;1.17;1.17;;;;;;;24.84;67.22;97468.41;4996653;28;20072;-70
2023/09/16 10:09:53;;;;;;;1.17;1.17;;;;;;;23.81;69.63;97361.56;5004819;28;20089;-72
2023/09/16 10:12:21;;;;;;;1.20;1.20;;;;;;;23.28;69.13;97266.19;4996345;28;20065;-70
2023/09/16 10:14:48;;;;;;;1.05;1.05;;;;;;;23.92;69.39;97335.78;4986607;28;20061;-69
2023/09/16 10:17:15;;;;;;;1.30;1.30;;;;;;;25.04;68.51;97500.16;4988385;28;20517;-69
2023/09/16 10:19:43;;;;;;;1.30;1.30;;;;;;;23.87;70.51;97407.88;5004804;28;20058;-68
2023/09/16 10:22:11;;;;;;;1.40;1.40;;;;;;;24.07;70.58;97413.38;5012808;28;20050;-66
2023/09/16 10:24:41;;;;;;;1.30;1.30;;;;;;;24.41;71.25;97479.47;5005894;28;20053;-66
2023/09/16 10:27:21;;;;;;;1.20;1.20;;;;;;;24.04;71.04;97426.41;4999705;28;20582;-69
2023/09/16 10:29:48;;;;;;;1.13;1.13;;;;;;;24.45;71.15;97468.84;5005963;28;20580;-70
2023/09/16 10:32:18;;;;;;;1.15;1.15;;;;;;;24.39;70.19;97453.63;5007721;28;20084;-70
2023/09/16 10:34:48;;;;;;;1.10;1.10;;;;;;;24.49;68.84;97435.53;5025825;28;20045;-72
2023/09/16 10:37:18;;;;;;;1.23;1.23;;;;;;;24.74;68.78;97486.56;5012616;28;20045;-71
2023/09/16 10:39:49;;;;;;;1.20;1.20;;;;;;;24.77;69.95;97513.97;5001828;28;20054;-69
2023/09/16 10:42:17;;;;;;;1.05;1.05;;;;;;;24.68;68.91;97499.72;5009035;28;20053;-69
2023/09/16 10:44:45;;;;;;;1.25;1.25;;;;;;;24.86;68.70;97511.28;5004880;28;20046;-63
2023/09/16 10:47:16;;;;;;;1.30;1.30;;;;;;;24.80;69.17;97510.25;5009450;28;20104;-69
2023/09/16 10:49:45;;;;;;;1.10;1.10;;;;;;;24.64;68.84;97462.16;5003898;28;20525;-69
2023/09/16 10:52:16;;;;;;;1.20;1.20;;;;;;;24.88;67.75;97483.25;5015703;28;20137;-69
2023/09/16 10:55:01;;;;;;;1.10;1.10;;;;;;;24.89;70.06;97499.03;5019669;28;20053;-71
2023/09/16 10:57:39;;;;;;;1.20;1.20;;;;;;;23.68;71.38;97375.69;5010347;28;20050;-72
2023/09/16 11:00:10;;;;;;;1.20;1.20;;;;;;;23.45;74.01;97378.00;5020421;28;20052;-64
2023/09/16 11:02:52;;;;;;;1.00;1.00;;;;;;;23.66;76.17;97470.75;5011943;28;20140;-68
2023/09/16 11:05:19;;;;;;;1.20;1.20;;;;;;;23.91;76.79;97485.00;5018266;28;20104;-71
2023/09/16 11:07:46;;;;;;;1.10;1.10;;;;;;;23.80;76.25;97448.50;5013169;28;20060;-70
2023/09/16 11:10:13;;;;;;;1.20;1.20;;;;;;;24.23;76.07;97473.56;5015868;28;20508;-64
2023/09/16 11:12:41;;;;;;;1.10;1.10;;;;;;;23.88;74.62;97415.13;5021687;28;20145;-70
2023/09/16 11:15:08;;;;;;;1.13;1.13;;;;;;;24.13;74.78;97426.53;4997314;28;20061;-70
2023/09/16 11:17:39;;;;;;;1.20;1.20;;;;;;;24.05;71.79;97360.06;5005660;28;20512;-73
2023/09/16 11:20:22;;;;;;;1.20;1.20;;;;;;;24.86;71.02;97460.25;5003738;28;20080;-73
2023/09/16 11:22:49;;;;;;;1.20;1.20;;;;;;;24.52;68.33;97377.94;5003626;28;20602;-73
2023/09/16 11:25:16;;;;;;;1.20;1.20;;;;;;;25.07;65.70;97448.19;5003817;28;20471;-73
2023/09/16 11:27:44;;;;;;;1.40;1.40;;;;;;;25.19;64.31;97450.22;5005171;28;20066;-73
2023/09/16 11:30:14;;;;;;;1.40;1.40;;;;;;;25.30;64.19;97445.00;5005070;28;20085;-73
2023/09/16 11:33:02;;;;;;;1.20;1.20;;;;;;;25.27;64.08;97437.41;5005483;28;20045;-73